createdAt,value
2018-05-12T00:00:02.278Z,10.2
2018-05-12T00:15:02.633Z,10.2
2018-05-12T00:30:02.924Z,10.2
2018-05-12T00:45:03.148Z,10.2
2018-05-12T01:00:02.374Z,10.2
2018-05-12T01:15:02.592Z,10.2
2018-05-12T01:30:02.998Z,10.2
2018-05-12T01:45:02.275Z,10.2
2018-05-12T02:00:02.483Z,10.2
2018-05-12T02:15:02.760Z,10.2
2018-05-12T02:30:03.075Z,10.2
2018-05-12T02:45:02.304Z,10.2
2018-05-12T03:00:02.560Z,10.3
2018-05-12T03:15:02.780Z,10.3
2018-05-12T03:30:03.151Z,10.3
2018-05-12T03:45:02.421Z,10.4
2018-05-12T04:00:02.729Z,10.4
2018-05-12T04:15:02.980Z,10.4
2018-05-12T04:30:02.310Z,10.4
2018-05-12T04:45:02.515Z,10.4
2018-05-12T05:00:02.730Z,10.5
2018-05-12T05:15:02.966Z,10.5
2018-05-12T05:30:02.290Z,10.5
2018-05-12T05:45:02.557Z,10.6
2018-05-12T06:00:02.952Z,10.6
2018-05-12T06:15:02.356Z,10.6
2018-05-12T06:30:02.735Z,10.6
2018-05-12T06:45:02.960Z,10.7
2018-05-12T07:00:02.266Z,10.7
2018-05-12T07:15:02.591Z,10.8
2018-05-12T07:30:02.889Z,10.8
2018-05-12T07:45:03.311Z,10.8
2018-05-12T08:00:02.352Z,10.9
2018-05-12T08:15:02.641Z,10.9
2018-05-12T08:30:02.964Z,11
2018-05-12T08:45:02.186Z,11.1
2018-05-12T09:00:02.431Z,11.1
2018-05-12T09:15:02.782Z,11.1
2018-05-12T09:30:03.128Z,11.2
2018-05-12T09:45:02.456Z,11.2
2018-05-12T10:00:02.780Z,11.3
2018-05-12T10:15:03.007Z,11.4
2018-05-12T10:30:02.303Z,11.4
2018-05-12T10:45:02.567Z,11.5
2018-05-12T11:00:02.823Z,11.6
2018-05-12T11:15:03.141Z,11.6
2018-05-12T11:30:02.492Z,11.6
2018-05-12T11:45:02.711Z,11.7
2018-05-12T12:00:02.915Z,11.8
2018-05-12T12:15:02.280Z,11.8
2018-05-12T12:30:02.608Z,11.9
2018-05-12T12:45:02.830Z,11.9
2018-05-12T13:00:03.133Z,11.9
2018-05-12T13:15:02.481Z,12
2018-05-12T13:30:02.789Z,12
2018-05-12T13:45:03.091Z,12.1
2018-05-12T14:00:02.359Z,12.1
2018-05-12T14:15:02.582Z,12.1
2018-05-12T14:30:02.900Z,12.1
2018-05-12T14:45:03.320Z,12.1
2018-05-12T15:00:02.556Z,12.1
2018-05-12T15:15:02.791Z,12.1
2018-05-12T15:30:03.124Z,12.1
2018-05-12T15:45:02.404Z,12.1
2018-05-12T16:00:02.616Z,12
2018-05-12T16:15:02.837Z,11.9
2018-05-12T16:30:03.187Z,11.9
2018-05-12T16:45:02.440Z,11.9
2018-05-12T17:00:02.660Z,11.9
2018-05-12T17:15:02.907Z,11.8
2018-05-12T17:30:02.221Z,11.8
2018-05-12T17:45:02.465Z,11.8
2018-05-12T18:00:02.716Z,11.8
2018-05-12T18:15:02.963Z,11.8
2018-05-12T18:30:02.331Z,11.8
2018-05-12T18:45:02.568Z,11.7
2018-05-12T19:00:02.871Z,11.6
2018-05-12T19:15:03.121Z,11.6
2018-05-12T19:30:02.476Z,11.6
2018-05-12T19:45:02.714Z,11.6
2018-05-12T20:00:02.923Z,11.5
2018-05-12T20:15:03.187Z,11.5
2018-05-12T20:30:02.543Z,11.4
2018-05-12T20:45:02.982Z,11.4
2018-05-12T21:00:02.193Z,11.4
2018-05-12T21:15:02.415Z,11.4
2018-05-12T21:30:02.700Z,11.4
2018-05-12T21:45:02.900Z,11.4
2018-05-12T22:00:03.160Z,11.4
2018-05-12T22:15:02.509Z,11.4
2018-05-12T22:30:02.831Z,11.4
2018-05-12T22:45:03.268Z,11.4
2018-05-12T23:00:02.559Z,11.4
2018-05-12T23:15:02.839Z,11.4
2018-05-12T23:30:03.143Z,11.4
2018-05-12T23:45:02.460Z,11.4
